Milano, Texas
Current Conditions -  °F | °C
As of 10:15 AM on Monday 26 Jan 2015 (Local Time) from KT35 Reporting Station
Clear Clear  
Wind Chill: 56°   Ceiling: Unl
Heat Index: 56°   Visibility: 10mi
Dew Point: 32°   Wind: 3mph
Humidity: 41%   Direction: 240°WSW
Pressure: 30.28"   Gusts: NA
Location:  30.71°N, 96.86°W
Report Text: KT35 261615Z AUTO 24003KT 10SM CLR 13/00 A3028 RMK AO2 T01320000
Loading
Personal Weather Stations






























Interactive Weather Map New forecast layout! Learn more

10-Day Weather Forecast

Advertisements
Track Severe Weather on mobile